createdAt,value
2023-05-09T00:02:14.668Z,100786.06
2023-05-09T00:04:41.619Z,100789.06
2023-05-09T00:07:10.380Z,100774.94
2023-05-09T00:09:37.032Z,100781.72
2023-05-09T00:12:04.147Z,100773.31
2023-05-09T00:14:30.784Z,100785.78
2023-05-09T00:16:59.239Z,100780.63
2023-05-09T00:19:26.041Z,100775.19
2023-05-09T00:21:52.656Z,100767.59
2023-05-09T00:24:19.276Z,100772.78
2023-05-09T00:26:45.966Z,100764.94
2023-05-09T00:29:12.649Z,100756.53
2023-05-09T00:31:39.296Z,100758.44
2023-05-09T00:34:05.930Z,100753.03
2023-05-09T00:36:32.714Z,100761.16
2023-05-09T00:38:59.389Z,100751.97
2023-05-09T00:41:26.034Z,100761.97
2023-05-09T00:43:52.772Z,100760.09
2023-05-09T00:46:19.776Z,100748.69
2023-05-09T00:48:46.775Z,100751.13
2023-05-09T00:51:13.610Z,100742.16
2023-05-09T00:53:40.747Z,100735.66
2023-05-09T00:56:08.432Z,100739.47
2023-05-09T00:58:35.127Z,100743.28
2023-05-09T01:01:03.707Z,100745.47
2023-05-09T01:03:31.607Z,100742.75
2023-05-09T01:06:39.729Z,100740.03
2023-05-09T01:09:29.227Z,100745.72
2023-05-09T01:12:16.442Z,100732.97
2023-05-09T01:15:08.405Z,100725.38
2023-05-09T01:17:48.801Z,100725.38
2023-05-09T01:20:30.402Z,100725.38
2023-05-09T01:23:27.987Z,100724.84
2023-05-09T01:26:17.815Z,100720.25
2023-05-09T01:29:31.697Z,100705.28
2023-05-09T01:32:02.936Z,100705.09
2023-05-09T01:34:32.466Z,100701.00
2023-05-09T01:37:01.168Z,100706.69
2023-05-09T01:39:29.940Z,100699.34
2023-05-09T01:41:59.443Z,100702.88
2023-05-09T01:44:32.343Z,100701.53
2023-05-09T01:47:01.138Z,100701.25
2023-05-09T01:49:31.457Z,100702.09
2023-05-09T01:52:01.221Z,100704.53
2023-05-09T01:54:28.812Z,100704.78
2023-05-09T01:56:55.993Z,100701.53
2023-05-09T01:59:23.698Z,100697.72
2023-05-09T02:01:50.792Z,100696.38
2023-05-09T02:04:18.838Z,100701.00
2023-05-09T02:06:50.607Z,100688.25
2023-05-09T02:09:19.419Z,100692.59
2023-05-09T02:11:46.860Z,100688.81
2023-05-09T02:14:14.253Z,100692.59
2023-05-09T02:16:41.571Z,100691.50
2023-05-09T02:19:08.932Z,100691.22
2023-05-09T02:21:36.199Z,100698.81
2023-05-09T02:24:03.560Z,100695.84
2023-05-09T02:26:30.848Z,100695.03
2023-05-09T02:28:58.773Z,100695.59
2023-05-09T02:31:29.613Z,100689.91
2023-05-09T02:33:57.320Z,100690.69
2023-05-09T02:36:24.462Z,100700.47
2023-05-09T02:38:51.550Z,100702.91
2023-05-09T02:41:18.629Z,100701.53
2023-05-09T02:43:45.948Z,100692.59
2023-05-09T02:46:12.734Z,100687.16
2023-05-09T02:48:39.595Z,100683.63
2023-05-09T02:51:06.341Z,100681.22
2023-05-09T02:53:33.286Z,100681.19
2023-05-09T02:55:59.961Z,100678.22
2023-05-09T02:58:26.699Z,100673.34
2023-05-09T03:00:53.394Z,100672.25
2023-05-09T03:03:22.112Z,100674.97
2023-05-09T03:05:49.907Z,100676.59
2023-05-09T03:08:16.617Z,100672.78
2023-05-09T03:10:44.172Z,100673.09
2023-05-09T03:13:11.105Z,100663.31
2023-05-09T03:15:38.194Z,100657.34
2023-05-09T03:18:06.251Z,100658.69
2023-05-09T03:20:33.106Z,100661.66
2023-05-09T03:23:00.137Z,100669.25
2023-05-09T03:25:26.933Z,100656.50
2023-05-09T03:27:53.599Z,100658.66
2023-05-09T03:30:20.380Z,100643.75
2023-05-09T03:32:49.216Z,100646.78
2023-05-09T03:35:16.291Z,100645.69
2023-05-09T03:37:43.472Z,100647.31
2023-05-09T03:40:10.830Z,100645.91
2023-05-09T03:42:45.771Z,100649.72
2023-05-09T03:45:12.570Z,100641.88
2023-05-09T03:47:39.688Z,100647.84
2023-05-09T03:50:07.142Z,100640.78
2023-05-09T03:52:34.590Z,100638.31
2023-05-09T03:55:01.852Z,100640.78
2023-05-09T03:57:34.553Z,100638.09
2023-05-09T04:00:01.627Z,100637.81
2023-05-09T04:02:36.011Z,100642.41
2023-05-09T04:05:03.277Z,100638.63
2023-05-09T04:07:31.589Z,100641.06
2023-05-09T04:09:58.470Z,100642.69
2023-05-09T04:12:25.177Z,100642.94
2023-05-09T04:14:52.234Z,100642.13
2023-05-09T04:17:19.460Z,100637.53
2023-05-09T04:19:46.214Z,100632.91
2023-05-09T04:22:12.924Z,100641.06
2023-05-09T04:24:39.666Z,100649.47
2023-05-09T04:27:06.806Z,100643.78
2023-05-09T04:29:35.250Z,100653.84
2023-05-09T04:32:02.503Z,100651.13
2023-05-09T04:34:29.677Z,100647.59
2023-05-09T04:36:59.899Z,100652.22
2023-05-09T04:39:26.600Z,100644.63
2023-05-09T04:42:02.621Z,100644.34
2023-05-09T04:44:29.267Z,100641.06
2023-05-09T04:46:58.091Z,100633.78
2023-05-09T04:49:24.891Z,100634.03
2023-05-09T04:51:51.800Z,100632.66
2023-05-09T04:54:18.584Z,100625.63
2023-05-09T04:56:45.796Z,100626.13
2023-05-09T04:59:13.442Z,100629.66
2023-05-09T05:01:40.280Z,100623.44
2023-05-09T05:04:07.078Z,100616.94
2023-05-09T05:06:33.936Z,100616.41
2023-05-09T05:09:00.858Z,100618.03
2023-05-09T05:11:27.958Z,100614.19
2023-05-09T05:13:55.261Z,100609.28
2023-05-09T05:16:22.576Z,100617.16
2023-05-09T05:18:49.505Z,100613.66
2023-05-09T05:21:17.598Z,100610.38
2023-05-09T05:23:44.972Z,100606.03
2023-05-09T05:26:12.815Z,100606.53
2023-05-09T05:28:40.067Z,100600.31
2023-05-09T05:31:07.104Z,100600.31
2023-05-09T05:33:33.974Z,100599.50
2023-05-09T05:36:02.101Z,100601.44
2023-05-09T05:38:28.805Z,100599.50
2023-05-09T05:40:57.059Z,100599.44
2023-05-09T05:43:25.090Z,100597.84
2023-05-09T05:45:51.881Z,100603.44
2023-05-09T05:48:22.169Z,100597.81
2023-05-09T05:50:48.900Z,100601.91
2023-05-09T05:53:18.734Z,100609.25
2023-05-09T05:55:46.801Z,100598.38
2023-05-09T05:58:13.714Z,100605.13
2023-05-09T06:00:40.504Z,100599.03
2023-05-09T06:03:08.773Z,100603.69
2023-05-09T06:05:44.385Z,100596.94
2023-05-09T06:08:12.035Z,100597.22
2023-05-09T06:10:38.738Z,100595.50
2023-05-09T06:13:05.484Z,100588.75
2023-05-09T06:15:33.184Z,100588.25
2023-05-09T06:18:00.219Z,100577.59
2023-05-09T06:20:27.982Z,100592.13
2023-05-09T06:22:54.785Z,100594.03
2023-05-09T06:25:21.553Z,100588.47
2023-05-09T06:27:48.181Z,100585.28
2023-05-09T06:30:25.449Z,100586.38
2023-05-09T06:32:54.857Z,100584.69
2023-05-09T06:35:21.859Z,100579.50
2023-05-09T06:37:49.186Z,100578.13
2023-05-09T06:40:17.180Z,100589.94
2023-05-09T06:42:44.928Z,100582.56
2023-05-09T06:45:12.036Z,100585.59
2023-05-09T06:47:38.753Z,100576.69
2023-05-09T06:50:06.054Z,100573.41
2023-05-09T06:52:32.664Z,100566.63
2023-05-09T06:54:59.385Z,100564.53
2023-05-09T06:57:26.258Z,100558.19
2023-05-09T06:59:52.898Z,100556.06
2023-05-09T07:02:19.687Z,100554.16
2023-05-09T07:04:46.536Z,100558.19
2023-05-09T07:07:13.270Z,100558.06
2023-05-09T07:09:39.952Z,100555.25
2023-05-09T07:12:06.710Z,100557.44
2023-05-09T07:14:33.368Z,100559.53
2023-05-09T07:17:13.697Z,100553.63
2023-05-09T07:19:45.440Z,100552.25
2023-05-09T07:22:13.398Z,100545.59
2023-05-09T07:24:40.298Z,100537.09
2023-05-09T07:27:07.043Z,100534.78
2023-05-09T07:29:33.826Z,100534.00
2023-05-09T07:32:00.631Z,100534.94
2023-05-09T07:34:27.331Z,100529.97
2023-05-09T07:36:54.165Z,100526.66
2023-05-09T07:39:20.936Z,100524.19
2023-05-09T07:41:48.765Z,100514.13
2023-05-09T07:44:15.859Z,100512.38
2023-05-09T07:46:42.805Z,100509.81
2023-05-09T07:49:09.670Z,100501.56
2023-05-09T07:51:36.588Z,100497.06
2023-05-09T07:54:03.637Z,100495.66
2023-05-09T07:56:30.504Z,100487.38
2023-05-09T07:58:57.186Z,100496.81
2023-05-09T08:01:23.905Z,100496.13
2023-05-09T08:03:50.724Z,100492.53
2023-05-09T08:06:17.630Z,100488.38
2023-05-09T08:08:44.296Z,100483.94
2023-05-09T08:11:10.984Z,100472.69
2023-05-09T08:13:37.672Z,100463.19
2023-05-09T08:16:04.685Z,100460.88
2023-05-09T08:18:31.592Z,100459.78
2023-05-09T08:20:59.549Z,100454.97
2023-05-09T08:23:26.827Z,100453.13
2023-05-09T08:25:54.645Z,100461.72
2023-05-09T08:28:24.138Z,100454.03
2023-05-09T08:30:51.821Z,100454.09
2023-05-09T08:33:18.881Z,100453.72
2023-05-09T08:35:46.063Z,100444.78
2023-05-09T08:38:12.752Z,100449.31
2023-05-09T08:40:40.989Z,100450.00
2023-05-09T08:43:08.543Z,100447.13
2023-05-09T08:45:40.190Z,100445.69
2023-05-09T08:48:08.328Z,100444.41
2023-05-09T08:50:35.560Z,100443.56
2023-05-09T08:53:02.650Z,100441.19
2023-05-09T08:55:29.552Z,100438.97
2023-05-09T08:57:57.839Z,100427.53
2023-05-09T09:00:26.279Z,100421.63
2023-05-09T09:02:55.139Z,100428.19
2023-05-09T09:05:40.063Z,100425.75
2023-05-09T09:08:08.986Z,100424.34
2023-05-09T09:10:36.248Z,100425.59
2023-05-09T09:13:04.859Z,100423.31
2023-05-09T09:15:36.770Z,100423.59
2023-05-09T09:18:10.111Z,100412.38
2023-05-09T09:20:58.264Z,100412.31
2023-05-09T09:23:27.218Z,100405.50
2023-05-09T09:26:02.143Z,100408.09
2023-05-09T09:28:29.656Z,100400.28
2023-05-09T09:30:57.098Z,100395.63
2023-05-09T09:33:25.701Z,100392.34
2023-05-09T09:35:54.359Z,100401.06
2023-05-09T09:38:23.169Z,100388.22
2023-05-09T09:40:56.727Z,100391.69
2023-05-09T09:43:31.112Z,100381.97
2023-05-09T09:46:01.733Z,100377.00
2023-05-09T09:48:35.394Z,100376.13
2023-05-09T09:51:08.299Z,100371.03
2023-05-09T09:53:42.379Z,100368.06
2023-05-09T09:56:09.447Z,100365.81
2023-05-09T09:58:36.475Z,100372.13
2023-05-09T10:01:07.362Z,100358.75
2023-05-09T10:03:41.967Z,100358.94
2023-05-09T10:06:16.743Z,100363.00
2023-05-09T10:08:47.008Z,100350.44
2023-05-09T10:11:14.130Z,100351.28
2023-05-09T10:13:42.441Z,100345.06
2023-05-09T10:16:10.088Z,100342.41
2023-05-09T10:18:39.576Z,100328.47
2023-05-09T10:21:12.045Z,100321.81
2023-05-09T10:23:45.661Z,100325.81
2023-05-09T10:26:23.550Z,100320.44
2023-05-09T10:28:55.854Z,100312.97
2023-05-09T10:31:27.217Z,100307.69
2023-05-09T10:33:55.859Z,100307.06
2023-05-09T10:36:25.921Z,100302.66
2023-05-09T10:38:56.126Z,100295.84
2023-05-09T10:41:23.604Z,100290.00
2023-05-09T10:43:50.459Z,100286.47
2023-05-09T10:46:17.849Z,100287.16
2023-05-09T10:48:45.597Z,100277.44
2023-05-09T10:51:13.040Z,100271.72
2023-05-09T10:53:45.203Z,100264.47
2023-05-09T10:56:32.321Z,100273.56
2023-05-09T10:59:00.138Z,100263.41
2023-05-09T11:01:37.500Z,100251.06
2023-05-09T11:04:14.433Z,100246.84
2023-05-09T11:06:41.721Z,100238.78
2023-05-09T11:09:28.042Z,100233.44
2023-05-09T11:12:08.666Z,100226.88
2023-05-09T11:14:35.549Z,100228.97
2023-05-09T11:17:04.387Z,100219.00
2023-05-09T11:19:47.625Z,100223.81
2023-05-09T11:22:22.619Z,100215.75
2023-05-09T11:25:00.171Z,100221.66
2023-05-09T11:27:28.496Z,100204.91
2023-05-09T11:29:59.212Z,100211.53
2023-05-09T11:32:32.764Z,100206.75
2023-05-09T11:35:17.474Z,100202.47
2023-05-09T11:37:49.827Z,100201.28
2023-05-09T11:40:18.577Z,100199.34
2023-05-09T11:42:50.554Z,100198.38
2023-05-09T11:45:18.007Z,100188.53
2023-05-09T11:47:45.870Z,100193.00
2023-05-09T11:50:14.231Z,100177.13
2023-05-09T11:52:41.829Z,100180.16
2023-05-09T11:55:12.504Z,100174.28
2023-05-09T11:57:51.121Z,100172.28
2023-05-09T12:00:20.382Z,100171.47
2023-05-09T12:02:48.025Z,100170.16
2023-05-09T12:05:17.488Z,100162.47
2023-05-09T12:07:45.262Z,100161.44
2023-05-09T12:10:14.313Z,100155.16
2023-05-09T12:12:51.294Z,100149.16
2023-05-09T12:15:19.840Z,100148.22
2023-05-09T12:17:50.391Z,100144.09
2023-05-09T12:20:18.791Z,100130.28
2023-05-09T12:22:53.238Z,100127.06
2023-05-09T12:25:19.975Z,100121.69
2023-05-09T12:27:47.578Z,100118.16
2023-05-09T12:30:16.053Z,100110.00
2023-05-09T12:32:43.608Z,100098.28
2023-05-09T12:35:11.147Z,100103.19
2023-05-09T12:37:38.394Z,100095.00
2023-05-09T12:40:08.680Z,100088.91
2023-05-09T12:42:35.835Z,100070.28
2023-05-09T12:45:04.282Z,100079.28
2023-05-09T12:47:34.932Z,100085.38
2023-05-09T12:50:04.467Z,100080.41
2023-05-09T12:52:50.181Z,100071.91
2023-05-09T12:55:21.430Z,100066.94
2023-05-09T12:58:03.766Z,100068.56
2023-05-09T13:00:43.290Z,100071.66
2023-05-09T13:03:25.232Z,100061.34
2023-05-09T13:06:02.182Z,100051.22
2023-05-09T13:08:29.328Z,100057.38
2023-05-09T13:11:08.071Z,100051.13
2023-05-09T13:13:42.428Z,100054.66
2023-05-09T13:16:10.763Z,100051.53
2023-05-09T13:18:38.873Z,100043.63
2023-05-09T13:21:05.853Z,100040.44
2023-05-09T13:23:32.613Z,100034.66
2023-05-09T13:25:59.267Z,100029.31
2023-05-09T13:28:25.931Z,100024.97
2023-05-09T13:30:52.652Z,100025.16
2023-05-09T13:33:25.906Z,100017.25
2023-05-09T13:35:53.745Z,100011.59
2023-05-09T13:38:20.530Z,100011.41
2023-05-09T13:40:47.322Z,100007.88
2023-05-09T13:43:13.957Z,99998.72
2023-05-09T13:45:40.651Z,100001.53
2023-05-09T13:48:07.418Z,99999.28
2023-05-09T13:50:34.279Z,100001.53
2023-05-09T13:53:01.015Z,99992.19
2023-05-09T13:55:27.794Z,99989.47
2023-05-09T13:57:54.818Z,99982.88
2023-05-09T14:00:22.112Z,99977.09
2023-05-09T14:02:48.949Z,99984.28
2023-05-09T14:05:16.773Z,99980.31
2023-05-09T14:07:43.671Z,99967.44
2023-05-09T14:10:12.304Z,99968.88
2023-05-09T14:12:40.424Z,99966.94
2023-05-09T14:15:08.256Z,99963.41
2023-05-09T14:17:35.097Z,99954.41
2023-05-09T14:20:02.209Z,99947.66
2023-05-09T14:22:31.071Z,99938.84
2023-05-09T14:24:58.539Z,99939.47
2023-05-09T14:27:26.165Z,99938.53
2023-05-09T14:29:53.017Z,99941.91
2023-05-09T14:32:19.692Z,99940.63
2023-05-09T14:34:49.322Z,99933.69
2023-05-09T14:37:16.153Z,99926.72
2023-05-09T14:39:43.950Z,99925.59
2023-05-09T14:42:11.638Z,99928.22
2023-05-09T14:44:38.930Z,99922.44
2023-05-09T14:47:06.292Z,99924.50
2023-05-09T14:49:33.227Z,99917.25
2023-05-09T14:52:00.280Z,99910.34
2023-05-09T14:54:27.120Z,99905.69
2023-05-09T14:56:53.869Z,99899.13
2023-05-09T14:59:21.014Z,99895.53
2023-05-09T15:01:47.879Z,99885.91
2023-05-09T15:04:14.562Z,99878.69
2023-05-09T15:06:41.320Z,99881.59
2023-05-09T15:09:08.521Z,99876.94
2023-05-09T15:11:46.786Z,99871.97
2023-05-09T15:14:15.235Z,99864.13
2023-05-09T15:16:42.145Z,99866.03
2023-05-09T15:19:08.922Z,99863.78
2023-05-09T15:21:36.040Z,99851.84
2023-05-09T15:24:04.707Z,99858.56
2023-05-09T15:26:32.053Z,99855.16
2023-05-09T15:28:58.795Z,99844.84
2023-05-09T15:31:25.816Z,99855.91
2023-05-09T15:33:52.737Z,99850.13
2023-05-09T15:36:19.491Z,99842.59
2023-05-09T15:38:49.208Z,99835.22
2023-05-09T15:41:16.852Z,99840.69
2023-05-09T15:43:43.752Z,99837.94
2023-05-09T15:46:10.703Z,99833.13
2023-05-09T15:48:37.549Z,99831.88
2023-05-09T15:51:04.408Z,99828.00
2023-05-09T15:53:31.256Z,99829.13
2023-05-09T15:55:57.977Z,99825.81
2023-05-09T15:58:24.840Z,99833.16
2023-05-09T16:00:51.663Z,99833.16
2023-05-09T16:03:18.919Z,99820.16
2023-05-09T16:05:45.692Z,99826.91
2023-05-09T16:08:12.573Z,99822.25
2023-05-09T16:10:39.294Z,99820.47
2023-05-09T16:13:06.757Z,99823.06
2023-05-09T16:15:33.925Z,99812.63
2023-05-09T16:18:00.556Z,99807.31
2023-05-09T16:20:27.249Z,99807.63
2023-05-09T16:22:53.890Z,99807.63
2023-05-09T16:25:20.585Z,99804.47
2023-05-09T16:27:47.315Z,99812.47
2023-05-09T16:30:14.853Z,99805.72
2023-05-09T16:32:42.436Z,99801.91
2023-05-09T16:35:09.492Z,99803.19
2023-05-09T16:37:36.487Z,99798.00
2023-05-09T16:40:04.328Z,99789.03
2023-05-09T16:42:31.422Z,99792.56
2023-05-09T16:44:58.075Z,99789.66
2023-05-09T16:47:24.862Z,99787.91
2023-05-09T16:49:51.644Z,99789.47
2023-05-09T16:52:18.407Z,99791.56
2023-05-09T16:54:45.145Z,99788.84
2023-05-09T16:57:11.967Z,99788.69
2023-05-09T16:59:39.600Z,99787.88
2023-05-09T17:02:06.432Z,99780.81
2023-05-09T17:04:34.748Z,99787.06
2023-05-09T17:07:02.684Z,99778.25
2023-05-09T17:09:29.506Z,99780.47
2023-05-09T17:11:56.479Z,99780.63
2023-05-09T17:14:23.320Z,99776.97
2023-05-09T17:16:50.333Z,99773.75
2023-05-09T17:19:16.980Z,99778.56
2023-05-09T17:21:44.166Z,99777.44
2023-05-09T17:24:11.044Z,99786.09
2023-05-09T17:26:38.619Z,99789.47
2023-05-09T17:29:05.770Z,99770.53
2023-05-09T17:31:32.610Z,99780.63
2023-05-09T17:33:59.280Z,99784.00
2023-05-09T17:36:26.159Z,99776.78
2023-05-09T17:38:52.815Z,99784.16
2023-05-09T17:41:19.525Z,99784.94
2023-05-09T17:43:46.204Z,99780.25
2023-05-09T17:46:14.728Z,99782.34
2023-05-09T17:48:41.993Z,99788.75
2023-05-09T17:51:09.077Z,99791.31
2023-05-09T17:53:35.756Z,99798.38
2023-05-09T17:56:02.461Z,99797.25
2023-05-09T17:58:29.994Z,99804.59
2023-05-09T18:00:58.520Z,99812.28
2023-05-09T18:03:28.908Z,99821.41
2023-05-09T18:05:55.924Z,99830.72
2023-05-09T18:08:22.869Z,99834.34
2023-05-09T18:10:49.814Z,99829.59
2023-05-09T18:13:17.065Z,99832.38
2023-05-09T18:15:43.845Z,99872.47
2023-05-09T18:18:12.894Z,99851.00
2023-05-09T18:20:42.092Z,99846.47
2023-05-09T18:23:08.871Z,99840.63
2023-05-09T18:25:35.873Z,99841.25
2023-05-09T18:28:02.572Z,99839.91
2023-05-09T18:30:29.310Z,99836.00
2023-05-09T18:33:00.094Z,99836.09
2023-05-09T18:35:26.903Z,99835.59
2023-05-09T18:37:53.755Z,99835.03
2023-05-09T18:40:20.420Z,99831.78
2023-05-09T18:42:47.274Z,99828.97
2023-05-09T18:45:14.152Z,99824.22
2023-05-09T18:47:40.869Z,99824.16
2023-05-09T18:50:08.101Z,99820.59
2023-05-09T18:52:34.921Z,99818.09
2023-05-09T18:55:01.663Z,99820.31
2023-05-09T18:57:30.746Z,99813.06
2023-05-09T18:59:58.142Z,99813.28
2023-05-09T19:02:25.477Z,99815.19
2023-05-09T19:04:52.429Z,99817.69
2023-05-09T19:07:19.305Z,99807.94
2023-05-09T19:09:46.080Z,99817.69
2023-05-09T19:12:13.045Z,99816.50
2023-05-09T19:14:40.102Z,99813.47
2023-05-09T19:17:07.722Z,99826.56
2023-05-09T19:19:34.575Z,99821.53
2023-05-09T19:22:01.697Z,99826.34
2023-05-09T19:24:28.590Z,99825.47
2023-05-09T19:26:55.377Z,99821.94
2023-05-09T19:29:22.097Z,99829.97
2023-05-09T19:31:48.823Z,99825.47
2023-05-09T19:34:15.567Z,99821.50
2023-05-09T19:36:42.246Z,99827.13
2023-05-09T19:39:09.149Z,99830.16
2023-05-09T19:41:35.987Z,99829.31
2023-05-09T19:44:02.945Z,99822.06
2023-05-09T19:46:29.962Z,99813.22
2023-05-09T19:48:56.938Z,99820.41
2023-05-09T19:51:23.718Z,99820.81
2023-05-09T19:53:50.653Z,99822.13
2023-05-09T19:56:17.416Z,99824.75
2023-05-09T19:58:44.384Z,99818.00
2023-05-09T20:01:11.148Z,99820.88
2023-05-09T20:03:40.642Z,99827.06
2023-05-09T20:06:07.708Z,99821.03
2023-05-09T20:08:34.686Z,99825.16
2023-05-09T20:11:01.399Z,99824.53
2023-05-09T20:13:28.367Z,99825.84
2023-05-09T20:15:55.212Z,99828.38
2023-05-09T20:18:21.922Z,99828.81
2023-05-09T20:20:49.356Z,99830.22
2023-05-09T20:23:16.229Z,99823.06
2023-05-09T20:25:42.968Z,99828.13
2023-05-09T20:28:11.763Z,99830.56
2023-05-09T20:30:38.784Z,99825.41
2023-05-09T20:33:05.572Z,99824.56
2023-05-09T20:35:32.287Z,99821.31
2023-05-09T20:37:58.949Z,99824.41
2023-05-09T20:40:25.690Z,99816.72
2023-05-09T20:42:53.432Z,99818.53
2023-05-09T20:45:20.183Z,99812.09
2023-05-09T20:47:46.876Z,99818.78
2023-05-09T20:50:13.898Z,99822.91
2023-05-09T20:52:40.893Z,99815.66
2023-05-09T20:55:07.951Z,99818.19
2023-05-09T20:57:34.678Z,99819.63
2023-05-09T21:00:01.498Z,99825.38
2023-05-09T21:02:28.580Z,99821.06
2023-05-09T21:04:55.340Z,99812.19
2023-05-09T21:07:22.311Z,99810.38
2023-05-09T21:09:50.823Z,99811.16
2023-05-09T21:12:17.507Z,99814.59
2023-05-09T21:14:44.746Z,99814.81
2023-05-09T21:17:11.797Z,99810.97
2023-05-09T21:19:38.614Z,99813.94
2023-05-09T21:22:05.457Z,99810.72
2023-05-09T21:24:32.076Z,99805.22
2023-05-09T21:26:58.789Z,99808.31
2023-05-09T21:29:25.579Z,99804.81
2023-05-09T21:31:52.824Z,99807.16
2023-05-09T21:34:19.517Z,99806.16
2023-05-09T21:36:46.234Z,99807.47
2023-05-09T21:39:12.943Z,99795.63
2023-05-09T21:41:40.459Z,99801.84
2023-05-09T21:44:11.174Z,99803.25
2023-05-09T21:46:38.338Z,99798.94
2023-05-09T21:49:05.107Z,99802.53
2023-05-09T21:51:33.257Z,99798.88
2023-05-09T21:54:01.083Z,99797.63
2023-05-09T21:56:27.867Z,99802.19
2023-05-09T21:58:54.583Z,99801.28
2023-05-09T22:01:21.323Z,99799.03
2023-05-09T22:03:48.119Z,99807.75
2023-05-09T22:06:14.885Z,99801.50
2023-05-09T22:08:41.619Z,99812.31
2023-05-09T22:11:08.452Z,99809.72
2023-05-09T22:13:37.923Z,99814.41
2023-05-09T22:16:04.947Z,99813.81
2023-05-09T22:18:31.783Z,99814.13
2023-05-09T22:20:58.948Z,99819.06
2023-05-09T22:23:25.760Z,99820.69
2023-05-09T22:25:52.459Z,99820.69
2023-05-09T22:28:19.189Z,99821.34
2023-05-09T22:30:45.872Z,99829.34
2023-05-09T22:33:12.643Z,99816.75
2023-05-09T22:35:39.512Z,99825.78
2023-05-09T22:38:06.503Z,99828.69
2023-05-09T22:40:33.926Z,99829.72
2023-05-09T22:43:00.832Z,99833.41
2023-05-09T22:45:27.621Z,99822.06
2023-05-09T22:47:54.459Z,99826.09
2023-05-09T22:50:21.338Z,99836.13
2023-05-09T22:52:48.002Z,99844.28
2023-05-09T22:55:14.868Z,99848.66
2023-05-09T22:57:41.555Z,99840.50
2023-05-09T23:00:09.134Z,99840.94
2023-05-09T23:02:36.065Z,99842.91
2023-05-09T23:05:03.528Z,99844.72
2023-05-09T23:07:30.886Z,99841.41
2023-05-09T23:09:57.621Z,99846.19
2023-05-09T23:12:24.240Z,99844.25
2023-05-09T23:14:50.864Z,99845.28
2023-05-09T23:17:17.567Z,99851.78
2023-05-09T23:19:44.231Z,99846.47
2023-05-09T23:22:11.363Z,99849.66
2023-05-09T23:24:38.028Z,99851.56
2023-05-09T23:27:04.680Z,99844.03
2023-05-09T23:29:31.309Z,99846.78
2023-05-09T23:31:58.055Z,99852.03
2023-05-09T23:34:25.355Z,99853.94
2023-05-09T23:36:52.084Z,99855.53
2023-05-09T23:39:19.810Z,99857.66
2023-05-09T23:41:46.516Z,99854.38
2023-05-09T23:44:13.192Z,99861.91
2023-05-09T23:46:39.927Z,99864.78
2023-05-09T23:49:07.234Z,99856.78
2023-05-09T23:51:33.943Z,99856.97
2023-05-09T23:54:00.809Z,99859.16
2023-05-09T23:56:27.528Z,99861.56
2023-05-09T23:58:54.222Z,99859.88
